Campo Fontenelle Airport


Codes: SBYS/QPS
Name: Campo Fontenelle Airport
City: Pirassununga
Country: Brazil
Elevation: 1968 ft.

Photos at Campo Fontenelle Airport


   Photos courtesy of SpottingLog. You can add your own sightings and photos by signing up for a free trial today.



No photos found.

Weather at Campo Fontenelle Airport


Time (UTC)DescriptionTempratureWindCloud coverageVisibilityPressureHumidity
18-Apr-2024 00:00Moderate Rain23°C0 mph, SW75%8470m1016hPa88%
18-Apr-2024 03:00Light Rain22°C2 mph, SE83%10000m1015hPa90%
18-Apr-2024 06:00Overcast Clouds21°C4 mph, S92%10000m1014hPa94%
18-Apr-2024 09:00Overcast Clouds20°C4 mph, S100%10000m1014hPa98%
18-Apr-2024 12:00Overcast Clouds21°C9 mph, S100%10000m1016hPa88%
18-Apr-2024 15:00Overcast Clouds26°C9 mph, S100%10000m1015hPa67%
18-Apr-2024 18:00Overcast Clouds26°C11 mph, S100%10000m1013hPa67%
18-Apr-2024 21:00Overcast Clouds21°C11 mph, S100%10000m1015hPa79%
19-Apr-2024 00:00Overcast Clouds19°C7 mph, S100%10000m1017hPa86%
19-Apr-2024 03:00Overcast Clouds17°C7 mph, S97%10000m1017hPa93%
19-Apr-2024 06:00Overcast Clouds17°C7 mph, S96%10000m1016hPa89%
19-Apr-2024 09:00Overcast Clouds17°C4 mph, S100%10000m1017hPa88%
19-Apr-2024 12:00Overcast Clouds21°C2 mph, S95%10000m1017hPa79%
19-Apr-2024 15:00Few Clouds27°C4 mph, SE16%10000m1016hPa61%
19-Apr-2024 18:00Scattered Clouds27°C2 mph, N42%10000m1014hPa60%
19-Apr-2024 21:00Overcast Clouds24°C2 mph, NE89%10000m1014hPa70%
20-Apr-2024 00:00Overcast Clouds20°C7 mph, S86%10000m1017hPa81%
20-Apr-2024 03:00Clear Sky17°C4 mph, S0%10000m1018hPa93%
20-Apr-2024 06:00Clear Sky16°C2 mph, S0%10000m1017hPa96%
20-Apr-2024 09:00Clear Sky16°C2 mph, S0%10000m1018hPa97%
20-Apr-2024 12:00Clear Sky22°C4 mph, SE0%10000m1019hPa75%
20-Apr-2024 15:00Clear Sky28°C2 mph, E0%10000m1017hPa54%
20-Apr-2024 18:00Clear Sky29°C2 mph, S0%10000m1014hPa47%
20-Apr-2024 21:00Clear Sky23°C7 mph, S0%10000m1015hPa68%
21-Apr-2024 00:00Clear Sky20°C2 mph, SE0%10000m1017hPa79%
21-Apr-2024 03:00Clear Sky19°C4 mph, S1%10000m1017hPa83%
21-Apr-2024 06:00Clear Sky18°C2 mph, SE1%10000m1016hPa87%
21-Apr-2024 09:00Clear Sky17°C2 mph, S0%10000m1017hPa89%
21-Apr-2024 12:00Clear Sky23°C2 mph, E0%10000m1018hPa69%
21-Apr-2024 15:00Clear Sky29°C4 mph, NE0%10000m1016hPa49%
21-Apr-2024 18:00Clear Sky30°C2 mph, SE0%10000m1013hPa41%
21-Apr-2024 21:00Clear Sky24°C4 mph, S0%10000m1013hPa61%
22-Apr-2024 00:00Clear Sky21°C2 mph, SE0%10000m1015hPa71%
22-Apr-2024 03:00Clear Sky19°C2 mph, NE0%10000m1015hPa73%
22-Apr-2024 06:00Clear Sky18°C0 mph, NE0%10000m1014hPa79%
22-Apr-2024 09:00Clear Sky17°C2 mph, N0%10000m1015hPa84%
22-Apr-2024 12:00Clear Sky24°C7 mph, NE0%10000m1016hPa61%
22-Apr-2024 15:00Clear Sky29°C7 mph, N0%10000m1014hPa43%
22-Apr-2024 18:00Clear Sky30°C7 mph, NW8%10000m1012hPa39%
22-Apr-2024 21:00Overcast Clouds25°C0 mph, NW95%10000m1012hPa52%